JAF3WG LDZA-EBBR
Flight info
| Callsign | JAF3WG |
|---|---|
| Flight time | 1h 30m |
| Altitude | 38000 |
| Route | PODET DCT RADLY DCT SIMBA DCT KEMES DCT TEKTU DCT TESGA DCT UMUPU T880 BATTY |
| Aircraft | B38M/M-SDE1FGHILORVWXY/HB1 |
Departure
| Time | 2026-05-07 16:48 |
|---|---|
| Airport | Zagreb Franjo Tuđman International Airport (LDZA) |
Arrival
| Time | 2026-05-07 18:19 |
|---|---|
| Airport | Brussels Airport (EBBR) |
| Time | Latitude | Longitude | Altitude | Speed | Heading |
|---|---|---|---|---|---|
| 2026-05-07 16:24 | 45.74157 | 16.07794 | 361 ft | 0 kts | 136° |
| 2026-05-07 16:41 | 45.74158 | 16.07794 | 361 ft | 0 kts | 136° |
| 2026-05-07 16:41 | 45.74165 | 16.07785 | 366 ft | 2 kts | 136° |
| 2026-05-07 16:41 | 45.74177 | 16.07769 | 361 ft | 2 kts | 136° |
| 2026-05-07 16:42 | 45.74188 | 16.07752 | 361 ft | 2 kts | 136° |
| 2026-05-07 16:42 | 45.74200 | 16.07736 | 367 ft | 2 kts | 127° |
| 2026-05-07 16:42 | 45.74207 | 16.07714 | 361 ft | 2 kts | 95° |
| 2026-05-07 16:42 | 45.74205 | 16.07691 | 361 ft | 2 kts | 61° |
| 2026-05-07 16:43 | 45.74201 | 16.07683 | 365 ft | 0 kts | 48° |
| 2026-05-07 16:45 | 45.74208 | 16.07695 | 361 ft | 6 kts | 46° |
| 2026-05-07 16:45 | 45.74266 | 16.07783 | 361 ft | 19 kts | 46° |
| 2026-05-07 16:45 | 45.74375 | 16.07917 | 364 ft | 15 kts | 348° |
| 2026-05-07 16:45 | 45.74452 | 16.07820 | 364 ft | 16 kts | 316° |
| 2026-05-07 16:46 | 45.74537 | 16.07706 | 361 ft | 18 kts | 317° |
| 2026-05-07 16:46 | 45.74635 | 16.07576 | 367 ft | 21 kts | 316° |
| 2026-05-07 16:46 | 45.74674 | 16.07461 | 365 ft | 10 kts | 234° |
| 2026-05-07 16:46 | 45.74652 | 16.07424 | 360 ft | 0 kts | 226° |
| 2026-05-07 16:47 | 45.74646 | 16.07415 | 364 ft | 5 kts | 227° |
| 2026-05-07 16:47 | 45.74520 | 16.07224 | 360 ft | 66 kts | 226° |
| 2026-05-07 16:48 | 45.74011 | 16.06450 | 365 ft | 144 kts | 227° |
| 2026-05-07 16:48 | 45.73270 | 16.05270 | 887 ft | 167 kts | 226° |
| 2026-05-07 16:48 | 45.72492 | 16.04011 | 1874 ft | 172 kts | 226° |
| 2026-05-07 16:48 | 45.71662 | 16.02699 | 2646 ft | 186 kts | 229° |
| 2026-05-07 16:49 | 45.70769 | 16.01223 | 3350 ft | 207 kts | 228° |
| 2026-05-07 16:49 | 45.69777 | 15.99593 | 4009 ft | 225 kts | 229° |
| 2026-05-07 16:49 | 45.68732 | 15.97886 | 5031 ft | 229 kts | 228° |
| 2026-05-07 16:49 | 45.67681 | 15.96180 | 6158 ft | 234 kts | 228° |
| 2026-05-07 16:50 | 45.66672 | 15.94247 | 6915 ft | 253 kts | 243° |
| 2026-05-07 16:50 | 45.66335 | 15.91791 | 7937 ft | 260 kts | 269° |
| 2026-05-07 16:50 | 45.66810 | 15.89244 | 8931 ft | 277 kts | 294° |
| 2026-05-07 16:50 | 45.68117 | 15.87128 | 9892 ft | 294 kts | 321° |
| 2026-05-07 16:51 | 45.70050 | 15.85964 | 10645 ft | 316 kts | 347° |
| 2026-05-07 16:51 | 45.72293 | 15.86139 | 11314 ft | 334 kts | 10° |
| 2026-05-07 16:51 | 45.74632 | 15.86709 | 12000 ft | 346 kts | 6° |
| 2026-05-07 16:51 | 45.77039 | 15.87208 | 12883 ft | 351 kts | 6° |
| 2026-05-07 16:52 | 45.79471 | 15.87700 | 13767 ft | 356 kts | 6° |
| 2026-05-07 16:52 | 45.81914 | 15.88186 | 14517 ft | 361 kts | 6° |
| 2026-05-07 16:52 | 45.84422 | 15.88683 | 15309 ft | 366 kts | 6° |
| 2026-05-07 16:52 | 45.86958 | 15.89186 | 16036 ft | 371 kts | 5° |
| 2026-05-07 16:53 | 45.89523 | 15.89693 | 16820 ft | 374 kts | 5° |
| 2026-05-07 16:53 | 45.92112 | 15.90206 | 17551 ft | 379 kts | 5° |
| 2026-05-07 16:53 | 45.94738 | 15.90727 | 18305 ft | 382 kts | 5° |
| 2026-05-07 16:53 | 45.97391 | 15.91254 | 18923 ft | 386 kts | 5° |
| 2026-05-07 16:54 | 46.00067 | 15.91639 | 19540 ft | 386 kts | 355° |
| 2026-05-07 16:54 | 46.02688 | 15.91009 | 20139 ft | 381 kts | 336° |
| 2026-05-07 16:54 | 46.04977 | 15.89297 | 20709 ft | 375 kts | 318° |
| 2026-05-07 16:54 | 46.06816 | 15.86690 | 21245 ft | 371 kts | 302° |
| 2026-05-07 16:55 | 46.08292 | 15.83634 | 21796 ft | 373 kts | 298° |
| 2026-05-07 16:55 | 46.09708 | 15.80484 | 22367 ft | 376 kts | 297° |
| 2026-05-07 16:55 | 46.11091 | 15.77271 | 22960 ft | 379 kts | 297° |
| 2026-05-07 16:55 | 46.12465 | 15.74009 | 23517 ft | 382 kts | 296° |
| 2026-05-07 16:56 | 46.13837 | 15.70709 | 23994 ft | 385 kts | 296° |
| 2026-05-07 16:56 | 46.15207 | 15.67384 | 24466 ft | 388 kts | 296° |
| 2026-05-07 16:56 | 46.18713 | 15.61471 | 25486 ft | 404 kts | 322° |
| 2026-05-07 16:57 | 46.21106 | 15.59321 | 25957 ft | 407 kts | 323° |
| 2026-05-07 16:57 | 46.23517 | 15.57166 | 26410 ft | 410 kts | 323° |
| 2026-05-07 16:57 | 46.25965 | 15.55005 | 26896 ft | 412 kts | 323° |
| 2026-05-07 16:57 | 46.28425 | 15.52848 | 27351 ft | 414 kts | 323° |
| 2026-05-07 16:58 | 46.30892 | 15.50689 | 27791 ft | 417 kts | 324° |
| 2026-05-07 16:58 | 46.33377 | 15.48513 | 28224 ft | 419 kts | 323° |
| 2026-05-07 16:58 | 46.35878 | 15.46322 | 28661 ft | 421 kts | 323° |
| 2026-05-07 16:58 | 46.38356 | 15.44149 | 29087 ft | 423 kts | 323° |
| 2026-05-07 16:59 | 46.40884 | 15.41930 | 29520 ft | 425 kts | 323° |
| 2026-05-07 16:59 | 46.43412 | 15.39707 | 29960 ft | 427 kts | 323° |
| 2026-05-07 16:59 | 46.45968 | 15.37461 | 30318 ft | 430 kts | 323° |
| 2026-05-07 16:59 | 46.48523 | 15.35211 | 30651 ft | 432 kts | 323° |
| 2026-05-07 17:00 | 46.51098 | 15.32939 | 31007 ft | 434 kts | 323° |
| 2026-05-07 17:00 | 46.53685 | 15.30656 | 31337 ft | 436 kts | 323° |
| 2026-05-07 17:00 | 46.56283 | 15.28360 | 31674 ft | 438 kts | 323° |
| 2026-05-07 17:00 | 46.58891 | 15.26052 | 32033 ft | 440 kts | 323° |
| 2026-05-07 17:01 | 46.61510 | 15.23733 | 32645 ft | 442 kts | 323° |
| 2026-05-07 17:01 | 46.64104 | 15.21417 | 32665 ft | 443 kts | 321° |
| 2026-05-07 17:01 | 46.66448 | 15.18588 | 32948 ft | 438 kts | 311° |
| 2026-05-07 17:01 | 46.68701 | 15.15562 | 33225 ft | 442 kts | 313° |
| 2026-05-07 17:02 | 46.70975 | 15.12555 | 33642 ft | 441 kts | 312° |
| 2026-05-07 17:02 | 46.73243 | 15.09535 | 34081 ft | 440 kts | 312° |
| 2026-05-07 17:02 | 46.75500 | 15.06525 | 34458 ft | 439 kts | 312° |
| 2026-05-07 17:02 | 46.77751 | 15.03519 | 34813 ft | 439 kts | 312° |
| 2026-05-07 17:03 | 46.80001 | 15.00513 | 35142 ft | 438 kts | 312° |
| 2026-05-07 17:03 | 46.82217 | 14.97545 | 35449 ft | 438 kts | 312° |
| 2026-05-07 17:03 | 46.84462 | 14.94538 | 35740 ft | 438 kts | 312° |
| 2026-05-07 17:03 | 46.86710 | 14.91521 | 36051 ft | 438 kts | 312° |
| 2026-05-07 17:04 | 46.88953 | 14.88508 | 36365 ft | 438 kts | 312° |
| 2026-05-07 17:04 | 46.91194 | 14.85495 | 36680 ft | 438 kts | 312° |
| 2026-05-07 17:04 | 46.93436 | 14.82475 | 36959 ft | 438 kts | 311° |
| 2026-05-07 17:04 | 46.95682 | 14.79447 | 37233 ft | 438 kts | 311° |
| 2026-05-07 17:05 | 46.97920 | 14.76427 | 37494 ft | 438 kts | 311° |
| 2026-05-07 17:05 | 47.00133 | 14.73436 | 37738 ft | 438 kts | 311° |
| 2026-05-07 17:05 | 47.02368 | 14.70413 | 37983 ft | 438 kts | 311° |
| 2026-05-07 17:05 | 47.04609 | 14.67376 | 38055 ft | 440 kts | 311° |
| 2026-05-07 17:06 | 47.09087 | 14.61300 | 38047 ft | 437 kts | 311° |
| 2026-05-07 17:06 | 47.13476 | 14.55330 | 38028 ft | 439 kts | 311° |
| 2026-05-07 17:07 | 47.17960 | 14.49216 | 38046 ft | 440 kts | 311° |
| 2026-05-07 17:07 | 47.22422 | 14.43117 | 38046 ft | 442 kts | 311° |
| 2026-05-07 17:08 | 47.26931 | 14.36941 | 38019 ft | 443 kts | 311° |
| 2026-05-07 17:08 | 47.31434 | 14.30755 | 38024 ft | 443 kts | 311° |
| 2026-05-07 17:09 | 47.35902 | 14.24606 | 38021 ft | 442 kts | 311° |
| 2026-05-07 17:09 | 47.40391 | 14.18410 | 38032 ft | 442 kts | 311° |
| 2026-05-07 17:10 | 47.44881 | 14.12199 | 38039 ft | 442 kts | 311° |
| 2026-05-07 17:10 | 47.49357 | 14.05990 | 38032 ft | 441 kts | 311° |
| 2026-05-07 17:11 | 47.53824 | 13.99779 | 38032 ft | 441 kts | 311° |
| 2026-05-07 17:11 | 47.58260 | 13.93597 | 38032 ft | 440 kts | 310° |
| 2026-05-07 17:12 | 47.62714 | 13.87375 | 38029 ft | 440 kts | 311° |
| 2026-05-07 17:12 | 47.67168 | 13.81135 | 38031 ft | 440 kts | 310° |
| 2026-05-07 17:13 | 47.71617 | 13.74889 | 38027 ft | 440 kts | 310° |
| 2026-05-07 17:13 | 47.76027 | 13.68682 | 38027 ft | 440 kts | 310° |
| 2026-05-07 17:14 | 47.80474 | 13.62407 | 38021 ft | 440 kts | 310° |
| 2026-05-07 17:14 | 47.84903 | 13.56141 | 38025 ft | 441 kts | 310° |
| 2026-05-07 17:15 | 47.89363 | 13.49818 | 38017 ft | 442 kts | 310° |
| 2026-05-07 17:15 | 47.93791 | 13.43524 | 38028 ft | 444 kts | 310° |
| 2026-05-07 17:16 | 47.98254 | 13.37163 | 38027 ft | 444 kts | 310° |
| 2026-05-07 17:16 | 48.02723 | 13.30777 | 38027 ft | 445 kts | 310° |
| 2026-05-07 17:17 | 48.07198 | 13.24368 | 38027 ft | 445 kts | 310° |
| 2026-05-07 17:17 | 48.11642 | 13.17990 | 38026 ft | 446 kts | 310° |
| 2026-05-07 17:18 | 48.16124 | 13.11543 | 38023 ft | 447 kts | 310° |
| 2026-05-07 17:18 | 48.20610 | 13.05074 | 38023 ft | 448 kts | 310° |
| 2026-05-07 17:19 | 48.25242 | 12.98801 | 38028 ft | 450 kts | 314° |
| 2026-05-07 17:19 | 48.29935 | 12.92669 | 38024 ft | 450 kts | 314° |
| 2026-05-07 17:20 | 48.34646 | 12.86470 | 38024 ft | 450 kts | 314° |
| 2026-05-07 17:20 | 48.39336 | 12.80281 | 38053 ft | 445 kts | 315° |
| 2026-05-07 17:21 | 48.43959 | 12.74164 | 38031 ft | 442 kts | 315° |
| 2026-05-07 17:21 | 48.48576 | 12.68039 | 38027 ft | 443 kts | 315° |
| 2026-05-07 17:22 | 48.53161 | 12.61942 | 38025 ft | 442 kts | 315° |
| 2026-05-07 17:22 | 48.57782 | 12.55782 | 38031 ft | 443 kts | 315° |
| 2026-05-07 17:23 | 48.62391 | 12.49622 | 38035 ft | 442 kts | 315° |
| 2026-05-07 17:23 | 48.66993 | 12.43455 | 38035 ft | 442 kts | 315° |
| 2026-05-07 17:24 | 48.71561 | 12.37320 | 38035 ft | 442 kts | 315° |
| 2026-05-07 17:24 | 48.76124 | 12.31175 | 38037 ft | 442 kts | 315° |
| 2026-05-07 17:25 | 48.80724 | 12.24964 | 38038 ft | 442 kts | 315° |
| 2026-05-07 17:25 | 48.85318 | 12.18745 | 38047 ft | 442 kts | 315° |
| 2026-05-07 17:26 | 48.89908 | 12.12516 | 38047 ft | 443 kts | 315° |
| 2026-05-07 17:26 | 48.94466 | 12.06314 | 38039 ft | 443 kts | 315° |
| 2026-05-07 17:27 | 48.99053 | 12.00057 | 38040 ft | 443 kts | 315° |
| 2026-05-07 17:27 | 49.03638 | 11.93787 | 38031 ft | 443 kts | 315° |
| 2026-05-07 17:28 | 49.08219 | 11.87505 | 38028 ft | 443 kts | 315° |
| 2026-05-07 17:28 | 49.12800 | 11.81207 | 38037 ft | 443 kts | 315° |
| 2026-05-07 17:29 | 49.17344 | 11.74945 | 38037 ft | 443 kts | 315° |
| 2026-05-07 17:29 | 49.21927 | 11.68612 | 38035 ft | 443 kts | 315° |
| 2026-05-07 17:30 | 49.26493 | 11.62286 | 38039 ft | 444 kts | 315° |
| 2026-05-07 17:30 | 49.31066 | 11.55934 | 38039 ft | 444 kts | 315° |
| 2026-05-07 17:31 | 49.35605 | 11.49613 | 38047 ft | 444 kts | 315° |
| 2026-05-07 17:31 | 49.40176 | 11.43231 | 38045 ft | 444 kts | 315° |
| 2026-05-07 17:32 | 49.44728 | 11.36860 | 38044 ft | 444 kts | 315° |
| 2026-05-07 17:32 | 49.48527 | 11.31532 | 38049 ft | 444 kts | 315° |
| 2026-05-07 17:33 | 49.53814 | 11.24084 | 38052 ft | 444 kts | 313° |
| 2026-05-07 17:33 | 49.55732 | 11.20403 | 38043 ft | 437 kts | 298° |
| 2026-05-07 17:33 | 49.57295 | 11.16402 | 38045 ft | 439 kts | 300° |
| 2026-05-07 17:34 | 49.60515 | 11.08393 | 38049 ft | 440 kts | 299° |
| 2026-05-07 17:34 | 49.63688 | 11.00334 | 38050 ft | 440 kts | 299° |
| 2026-05-07 17:35 | 49.66849 | 10.92255 | 38050 ft | 440 kts | 299° |
| 2026-05-07 17:35 | 49.69473 | 10.85529 | 38050 ft | 440 kts | 299° |
| 2026-05-07 17:36 | 49.73134 | 10.76115 | 38051 ft | 440 kts | 299° |
| 2026-05-07 17:36 | 49.76276 | 10.68007 | 38044 ft | 440 kts | 299° |
| 2026-05-07 17:37 | 49.79412 | 10.59892 | 38050 ft | 440 kts | 299° |
| 2026-05-07 17:37 | 49.82542 | 10.51764 | 38052 ft | 440 kts | 299° |
| 2026-05-07 17:38 | 49.85663 | 10.43637 | 38054 ft | 440 kts | 299° |
| 2026-05-07 17:38 | 49.88765 | 10.35533 | 38045 ft | 439 kts | 299° |
| 2026-05-07 17:39 | 49.91882 | 10.27365 | 38051 ft | 439 kts | 299° |
| 2026-05-07 17:39 | 49.94987 | 10.19204 | 38042 ft | 439 kts | 299° |
| 2026-05-07 17:40 | 49.98087 | 10.11030 | 38045 ft | 439 kts | 298° |
| 2026-05-07 17:40 | 50.01159 | 10.02904 | 38052 ft | 439 kts | 298° |
| 2026-05-07 17:41 | 50.04248 | 9.94708 | 38051 ft | 439 kts | 298° |
| 2026-05-07 17:41 | 50.07331 | 9.86501 | 38051 ft | 439 kts | 298° |
| 2026-05-07 17:42 | 50.10384 | 9.78348 | 38051 ft | 439 kts | 298° |
| 2026-05-07 17:42 | 50.13475 | 9.70066 | 38055 ft | 439 kts | 298° |
| 2026-05-07 17:43 | 50.16512 | 9.61880 | 38051 ft | 439 kts | 296° |
| 2026-05-07 17:43 | 50.17721 | 9.57537 | 38044 ft | 435 kts | 284° |
| 2026-05-07 17:43 | 50.18465 | 9.52964 | 38052 ft | 435 kts | 284° |
| 2026-05-07 17:44 | 50.20128 | 9.43871 | 38054 ft | 437 kts | 285° |
| 2026-05-07 17:44 | 50.21830 | 9.34764 | 38055 ft | 436 kts | 285° |
| 2026-05-07 17:45 | 50.23527 | 9.25672 | 38051 ft | 436 kts | 285° |
| 2026-05-07 17:45 | 50.25217 | 9.16572 | 38051 ft | 436 kts | 285° |
| 2026-05-07 17:46 | 50.26891 | 9.07518 | 38050 ft | 436 kts | 285° |
| 2026-05-07 17:46 | 50.28562 | 8.98428 | 38052 ft | 436 kts | 285° |
| 2026-05-07 17:47 | 50.30234 | 8.89298 | 38053 ft | 436 kts | 284° |
| 2026-05-07 17:47 | 50.31892 | 8.80194 | 38049 ft | 436 kts | 284° |
| 2026-05-07 17:48 | 50.33547 | 8.71061 | 38049 ft | 435 kts | 284° |
| 2026-05-07 17:48 | 50.35180 | 8.62003 | 38055 ft | 435 kts | 284° |
| 2026-05-07 17:49 | 50.36814 | 8.52894 | 38054 ft | 435 kts | 284° |
| 2026-05-07 17:49 | 50.38448 | 8.43739 | 38051 ft | 435 kts | 284° |
| 2026-05-07 17:50 | 50.40069 | 8.34613 | 38051 ft | 435 kts | 284° |
| 2026-05-07 17:50 | 50.41671 | 8.25547 | 38055 ft | 435 kts | 284° |
| 2026-05-07 17:51 | 50.43281 | 8.16390 | 38051 ft | 435 kts | 284° |
| 2026-05-07 17:51 | 50.44869 | 8.07316 | 37274 ft | 431 kts | 284° |
| 2026-05-07 17:52 | 50.45665 | 8.02749 | 36280 ft | 438 kts | 284° |
| 2026-05-07 17:52 | 50.46466 | 7.98137 | 35619 ft | 438 kts | 285° |
| 2026-05-07 17:52 | 50.46997 | 7.95079 | 35325 ft | 434 kts | 285° |
| 2026-05-07 17:52 | 50.47782 | 7.90542 | 34835 ft | 430 kts | 285° |
| 2026-05-07 17:53 | 50.48814 | 7.84558 | 34031 ft | 428 kts | 285° |
| 2026-05-07 17:53 | 50.49588 | 7.80051 | 33312 ft | 428 kts | 285° |
| 2026-05-07 17:53 | 50.50360 | 7.75551 | 32591 ft | 426 kts | 285° |
| 2026-05-07 17:53 | 50.51132 | 7.71041 | 31873 ft | 428 kts | 285° |
| 2026-05-07 17:54 | 50.51841 | 7.66889 | 31223 ft | 427 kts | 285° |
| 2026-05-07 17:54 | 50.52353 | 7.63876 | 30770 ft | 424 kts | 285° |
| 2026-05-07 17:54 | 50.53110 | 7.59421 | 30093 ft | 421 kts | 284° |
| 2026-05-07 17:54 | 50.53867 | 7.54959 | 29300 ft | 423 kts | 284° |
| 2026-05-07 17:55 | 50.54623 | 7.50486 | 28527 ft | 423 kts | 284° |
| 2026-05-07 17:55 | 50.55378 | 7.46007 | 27772 ft | 425 kts | 284° |
| 2026-05-07 17:55 | 50.55920 | 7.41444 | 27009 ft | 424 kts | 271° |
| 2026-05-07 17:55 | 50.55900 | 7.36833 | 26434 ft | 418 kts | 270° |
| 2026-05-07 17:56 | 50.55945 | 7.32327 | 26078 ft | 419 kts | 270° |
| 2026-05-07 17:56 | 50.55983 | 7.27761 | 25730 ft | 419 kts | 270° |
| 2026-05-07 17:56 | 50.56017 | 7.23179 | 25370 ft | 417 kts | 270° |
| 2026-05-07 17:56 | 50.56047 | 7.18639 | 24994 ft | 415 kts | 269° |
| 2026-05-07 17:57 | 50.55965 | 7.14110 | 24590 ft | 412 kts | 268° |
| 2026-05-07 17:57 | 50.55870 | 7.09628 | 24259 ft | 410 kts | 268° |
| 2026-05-07 17:57 | 50.55779 | 7.05129 | 23886 ft | 408 kts | 268° |
| 2026-05-07 17:57 | 50.55691 | 7.00708 | 23504 ft | 406 kts | 268° |
| 2026-05-07 17:58 | 50.55603 | 6.96291 | 23084 ft | 404 kts | 268° |
| 2026-05-07 17:58 | 50.55500 | 6.91899 | 22669 ft | 401 kts | 267° |
| 2026-05-07 17:58 | 50.55432 | 6.87588 | 22368 ft | 399 kts | 272° |
| 2026-05-07 17:58 | 50.55959 | 6.83317 | 22280 ft | 400 kts | 289° |
| 2026-05-07 17:59 | 50.56869 | 6.79180 | 22197 ft | 400 kts | 287° |
| 2026-05-07 17:59 | 50.57699 | 6.75010 | 22076 ft | 399 kts | 286° |
| 2026-05-07 17:59 | 50.58514 | 6.70832 | 22044 ft | 399 kts | 286° |
| 2026-05-07 17:59 | 50.59317 | 6.66669 | 22064 ft | 392 kts | 286° |
| 2026-05-07 18:00 | 50.60091 | 6.62647 | 21957 ft | 378 kts | 286° |
| 2026-05-07 18:00 | 50.60845 | 6.58722 | 21496 ft | 374 kts | 286° |
| 2026-05-07 18:00 | 50.61593 | 6.54819 | 21128 ft | 369 kts | 286° |
| 2026-05-07 18:00 | 50.62320 | 6.51019 | 20695 ft | 366 kts | 286° |
| 2026-05-07 18:01 | 50.63052 | 6.47189 | 20251 ft | 364 kts | 286° |
| 2026-05-07 18:01 | 50.63777 | 6.43381 | 19818 ft | 362 kts | 286° |
| 2026-05-07 18:01 | 50.64497 | 6.39599 | 19393 ft | 359 kts | 286° |
| 2026-05-07 18:01 | 50.65210 | 6.35839 | 18981 ft | 357 kts | 285° |
| 2026-05-07 18:02 | 50.66622 | 6.28379 | 18134 ft | 353 kts | 285° |
| 2026-05-07 18:02 | 50.67320 | 6.24680 | 17591 ft | 352 kts | 285° |
| 2026-05-07 18:02 | 50.68023 | 6.20946 | 16989 ft | 356 kts | 285° |
| 2026-05-07 18:03 | 50.68723 | 6.17225 | 16566 ft | 353 kts | 285° |
| 2026-05-07 18:03 | 50.69415 | 6.13533 | 16195 ft | 349 kts | 285° |
| 2026-05-07 18:03 | 50.70091 | 6.09923 | 15828 ft | 346 kts | 285° |
| 2026-05-07 18:03 | 50.70768 | 6.06299 | 15466 ft | 343 kts | 285° |
| 2026-05-07 18:04 | 50.71437 | 6.02711 | 15108 ft | 340 kts | 285° |
| 2026-05-07 18:04 | 50.72103 | 5.99129 | 14747 ft | 338 kts | 285° |
| 2026-05-07 18:04 | 50.72763 | 5.95575 | 14385 ft | 337 kts | 285° |
| 2026-05-07 18:04 | 50.73419 | 5.92040 | 14038 ft | 335 kts | 285° |
| 2026-05-07 18:05 | 50.74070 | 5.88520 | 13664 ft | 334 kts | 285° |
| 2026-05-07 18:05 | 50.74718 | 5.85014 | 13282 ft | 332 kts | 285° |
| 2026-05-07 18:05 | 50.75361 | 5.81526 | 12921 ft | 330 kts | 285° |
| 2026-05-07 18:05 | 50.76000 | 5.78053 | 12571 ft | 329 kts | 285° |
| 2026-05-07 18:06 | 50.76637 | 5.74586 | 12224 ft | 328 kts | 285° |
| 2026-05-07 18:06 | 50.77260 | 5.71184 | 11916 ft | 326 kts | 285° |
| 2026-05-07 18:06 | 50.77886 | 5.67763 | 11595 ft | 325 kts | 285° |
| 2026-05-07 18:06 | 50.78514 | 5.64325 | 11250 ft | 324 kts | 285° |
| 2026-05-07 18:07 | 50.79137 | 5.60908 | 10902 ft | 323 kts | 285° |
| 2026-05-07 18:07 | 50.79809 | 5.57540 | 10574 ft | 321 kts | 290° |
| 2026-05-07 18:07 | 50.80603 | 5.54299 | 10480 ft | 307 kts | 290° |
| 2026-05-07 18:07 | 50.81340 | 5.51240 | 10325 ft | 289 kts | 290° |
| 2026-05-07 18:08 | 50.82031 | 5.48334 | 10126 ft | 277 kts | 290° |
| 2026-05-07 18:08 | 50.82701 | 5.45497 | 9833 ft | 275 kts | 290° |
| 2026-05-07 18:08 | 50.83361 | 5.42692 | 9501 ft | 276 kts | 290° |
| 2026-05-07 18:08 | 50.84028 | 5.39851 | 9180 ft | 275 kts | 290° |
| 2026-05-07 18:09 | 50.84681 | 5.37062 | 8881 ft | 273 kts | 290° |
| 2026-05-07 18:09 | 50.85335 | 5.34263 | 8581 ft | 271 kts | 290° |
| 2026-05-07 18:09 | 50.85986 | 5.31474 | 8288 ft | 269 kts | 290° |
| 2026-05-07 18:09 | 50.86637 | 5.28683 | 7997 ft | 269 kts | 290° |
| 2026-05-07 18:10 | 50.87282 | 5.25912 | 7703 ft | 268 kts | 289° |
| 2026-05-07 18:10 | 50.87925 | 5.23144 | 7411 ft | 267 kts | 289° |
| 2026-05-07 18:10 | 50.88564 | 5.20394 | 7121 ft | 266 kts | 290° |
| 2026-05-07 18:10 | 50.89200 | 5.17653 | 6834 ft | 265 kts | 290° |
| 2026-05-07 18:11 | 50.89832 | 5.14925 | 6537 ft | 263 kts | 290° |
| 2026-05-07 18:11 | 50.90453 | 5.12238 | 6241 ft | 262 kts | 290° |
| 2026-05-07 18:11 | 50.90964 | 5.10031 | 5995 ft | 262 kts | 290° |
| 2026-05-07 18:11 | 50.91586 | 5.07334 | 5702 ft | 258 kts | 290° |
| 2026-05-07 18:12 | 50.92194 | 5.04700 | 5410 ft | 249 kts | 290° |
| 2026-05-07 18:12 | 50.92785 | 5.02130 | 5151 ft | 247 kts | 290° |
| 2026-05-07 18:12 | 50.93371 | 4.99580 | 4877 ft | 246 kts | 290° |
| 2026-05-07 18:12 | 50.93956 | 4.97032 | 4570 ft | 246 kts | 290° |
| 2026-05-07 18:13 | 50.94535 | 4.94509 | 4322 ft | 239 kts | 290° |
| 2026-05-07 18:13 | 50.95096 | 4.92059 | 4198 ft | 236 kts | 290° |
| 2026-05-07 18:13 | 50.95647 | 4.89655 | 4067 ft | 235 kts | 290° |
| 2026-05-07 18:13 | 50.96203 | 4.87221 | 3937 ft | 234 kts | 290° |
| 2026-05-07 18:14 | 50.96753 | 4.84812 | 3881 ft | 233 kts | 290° |
| 2026-05-07 18:14 | 50.97309 | 4.82373 | 3721 ft | 234 kts | 290° |
| 2026-05-07 18:14 | 50.97857 | 4.79967 | 3512 ft | 234 kts | 290° |
| 2026-05-07 18:14 | 50.98387 | 4.77545 | 3357 ft | 232 kts | 284° |
| 2026-05-07 18:15 | 50.98328 | 4.75064 | 3199 ft | 221 kts | 251° |
| 2026-05-07 18:15 | 50.97752 | 4.72900 | 2929 ft | 208 kts | 246° |
| 2026-05-07 18:15 | 50.97169 | 4.70838 | 2632 ft | 200 kts | 245° |
| 2026-05-07 18:15 | 50.96621 | 4.68914 | 2437 ft | 187 kts | 245° |
| 2026-05-07 18:16 | 50.96081 | 4.67032 | 2291 ft | 186 kts | 245° |
| 2026-05-07 18:16 | 50.95546 | 4.65172 | 2142 ft | 186 kts | 245° |
| 2026-05-07 18:16 | 50.95010 | 4.63309 | 1918 ft | 185 kts | 245° |
| 2026-05-07 18:16 | 50.94484 | 4.61477 | 1675 ft | 176 kts | 245° |
| 2026-05-07 18:17 | 50.93998 | 4.59791 | 1465 ft | 160 kts | 245° |
| 2026-05-07 18:17 | 50.93557 | 4.58257 | 1248 ft | 148 kts | 245° |
| 2026-05-07 18:17 | 50.93134 | 4.56792 | 1046 ft | 145 kts | 246° |
| 2026-05-07 18:17 | 50.92718 | 4.55348 | 854 ft | 144 kts | 246° |
| 2026-05-07 18:18 | 50.92301 | 4.53902 | 687 ft | 144 kts | 246° |
| 2026-05-07 18:18 | 50.91887 | 4.52467 | 498 ft | 148 kts | 247° |
| 2026-05-07 18:18 | 50.91467 | 4.50984 | 315 ft | 145 kts | 246° |
| 2026-05-07 18:18 | 50.91054 | 4.49592 | 120 ft | 131 kts | 245° |
| 2026-05-07 18:19 | 50.90840 | 4.48848 | 119 ft | 44 kts | 245° |
| 2026-05-07 18:19 | 50.90682 | 4.48357 | 121 ft | 47 kts | 227° |
| 2026-05-07 18:19 | 50.90512 | 4.48145 | 123 ft | 17 kts | 216° |
| 2026-05-07 18:19 | 50.90491 | 4.48120 | 122 ft | 0 kts | 214° |
| 2026-05-07 18:20 | 50.90489 | 4.48118 | 122 ft | 2 kts | 214° |
| 2026-05-07 18:20 | 50.90434 | 4.48056 | 124 ft | 18 kts | 216° |
| 2026-05-07 18:20 | 50.90341 | 4.48015 | 121 ft | 12 kts | 226° |
| 2026-05-07 18:21 | 50.90301 | 4.47997 | 121 ft | 6 kts | 162° |
| 2026-05-07 18:21 | 50.90259 | 4.48026 | 120 ft | 5 kts | 155° |